createdAt,value
2019-04-27T00:00:10.440Z,63.90
2019-04-27T00:02:43.596Z,64.10
2019-04-27T00:05:26.698Z,64.20
2019-04-27T00:08:09.784Z,64.20
2019-04-27T00:10:40.383Z,64.30
2019-04-27T00:13:09.222Z,64.40
2019-04-27T00:15:39.336Z,64.60
2019-04-27T00:18:17.092Z,64.70
2019-04-27T00:20:53.564Z,64.90
2019-04-27T00:23:24.015Z,64.90
2019-04-27T00:25:52.824Z,65.00
2019-04-27T00:28:23.024Z,65.10
2019-04-27T00:30:53.124Z,65.20
2019-04-27T00:33:23.756Z,65.30
2019-04-27T00:35:56.620Z,65.30
2019-04-27T00:38:43.496Z,65.30
2019-04-27T00:41:14.231Z,65.50
2019-04-27T00:43:44.473Z,65.50
2019-04-27T00:46:13.885Z,65.60
2019-04-27T00:48:43.366Z,65.80
2019-04-27T00:51:14.277Z,65.90
2019-04-27T00:53:43.563Z,66.00
2019-04-27T00:56:31.524Z,66.20
2019-04-27T00:59:07.704Z,66.20
2019-04-27T01:01:53.459Z,66.30
2019-04-27T01:04:26.576Z,66.30
2019-04-27T01:06:55.041Z,66.30
2019-04-27T01:09:23.740Z,66.40
2019-04-27T01:11:53.428Z,66.50
2019-04-27T01:14:23.047Z,66.70
2019-04-27T01:16:52.395Z,66.80
2019-04-27T01:19:20.967Z,66.90
2019-04-27T01:21:49.725Z,67.00
2019-04-27T01:24:18.944Z,67.10
2019-04-27T01:26:52.054Z,67.20
2019-04-27T01:29:25.158Z,67.30
2019-04-27T01:31:53.718Z,67.40
2019-04-27T01:34:22.216Z,67.40
2019-04-27T01:36:50.879Z,67.50
2019-04-27T01:39:23.272Z,67.60
2019-04-27T01:41:51.747Z,67.60
2019-04-27T01:44:21.863Z,67.70
2019-04-27T01:46:50.405Z,67.70
2019-04-27T01:49:19.359Z,67.70
2019-04-27T01:51:49.225Z,67.80
2019-04-27T01:54:19.802Z,67.70
2019-04-27T01:56:49.270Z,67.80
2019-04-27T01:59:19.758Z,67.80
2019-04-27T02:01:50.142Z,68.00
2019-04-27T02:04:20.529Z,68.00
2019-04-27T02:06:53.668Z,68.00
2019-04-27T02:09:23.282Z,68.00
2019-04-27T02:11:52.014Z,68.10
2019-04-27T02:14:21.316Z,68.00
2019-04-27T02:16:50.118Z,68.30
2019-04-27T02:19:19.316Z,68.30
2019-04-27T02:21:51.099Z,68.20
2019-04-27T02:24:18.812Z,68.40
2019-04-27T02:26:47.283Z,68.20
2019-04-27T02:29:18.909Z,68.50
2019-04-27T02:32:02.975Z,68.50
2019-04-27T02:34:32.964Z,68.60
2019-04-27T02:37:02.574Z,68.60
2019-04-27T02:39:31.831Z,68.70
2019-04-27T02:42:00.486Z,68.70
2019-04-27T02:44:36.371Z,69.00
2019-04-27T02:47:05.346Z,68.90
2019-04-27T02:49:34.241Z,69.00
2019-04-27T02:52:22.472Z,69.30
2019-04-27T02:54:51.027Z,69.40
2019-04-27T02:57:20.037Z,69.50
2019-04-27T02:59:50.258Z,69.80
2019-04-27T03:02:33.016Z,69.90
2019-04-27T03:05:01.638Z,70.00
2019-04-27T03:07:30.447Z,69.90
2019-04-27T03:10:02.170Z,70.30
2019-04-27T03:12:31.213Z,70.40
2019-04-27T03:15:04.225Z,70.40
2019-04-27T03:17:39.366Z,70.60
2019-04-27T03:20:15.806Z,70.90
2019-04-27T03:22:45.978Z,70.90
2019-04-27T03:25:16.868Z,71.20
2019-04-27T03:27:50.325Z,71.60
2019-04-27T03:30:22.815Z,71.80
2019-04-27T03:32:55.022Z,72.00
2019-04-27T03:35:22.650Z,72.20
2019-04-27T03:37:50.232Z,72.20
2019-04-27T03:40:20.317Z,72.40
2019-04-27T03:42:50.842Z,72.50
2019-04-27T03:45:20.228Z,72.60
2019-04-27T03:47:50.507Z,72.80
2019-04-27T03:50:21.249Z,72.90
2019-04-27T03:53:10.129Z,73.00
2019-04-27T03:55:55.279Z,73.10
2019-04-27T03:58:30.489Z,73.00
2019-04-27T04:01:00.027Z,73.10
2019-04-27T04:03:29.704Z,73.20
2019-04-27T04:06:00.310Z,73.20
2019-04-27T04:08:30.768Z,73.80
2019-04-27T04:11:12.490Z,73.90
2019-04-27T04:13:49.786Z,74.00
2019-04-27T04:16:22.607Z,73.90
2019-04-27T04:19:00.807Z,73.90
2019-04-27T04:21:29.833Z,74.00
2019-04-27T04:24:00.880Z,74.10
2019-04-27T04:26:32.305Z,75.40
2019-04-27T04:29:00.030Z,74.50
2019-04-27T04:31:32.569Z,74.50
2019-04-27T04:33:59.869Z,74.70
2019-04-27T04:36:30.075Z,74.80
2019-04-27T04:39:00.479Z,75.00
2019-04-27T04:41:50.889Z,75.00
2019-04-27T04:44:21.603Z,75.10
2019-04-27T04:47:10.192Z,75.00
2019-04-27T04:49:39.759Z,75.20
2019-04-27T04:52:09.613Z,75.20
2019-04-27T04:54:40.723Z,75.40
2019-04-27T04:57:09.373Z,75.40
2019-04-27T04:59:39.074Z,75.70
2019-04-27T05:02:10.562Z,75.80
2019-04-27T05:04:39.111Z,75.70
2019-04-27T05:07:09.231Z,75.70
2019-04-27T05:09:39.581Z,75.90
2019-04-27T05:12:08.901Z,76.00
2019-04-27T05:14:38.930Z,75.90
2019-04-27T05:17:09.497Z,76.10
2019-04-27T05:19:38.970Z,76.00
2019-04-27T05:22:09.206Z,76.10
2019-04-27T05:24:39.344Z,76.10
2019-04-27T05:27:09.228Z,76.10
2019-04-27T05:29:38.940Z,76.10
2019-04-27T05:32:09.566Z,76.20
2019-04-27T05:34:39.453Z,76.20
2019-04-27T05:37:08.961Z,76.30
2019-04-27T05:39:38.960Z,76.50
2019-04-27T05:42:10.980Z,76.60
2019-04-27T05:45:20.008Z,76.70
2019-04-27T05:47:51.958Z,76.70
2019-04-27T05:50:22.123Z,76.60
2019-04-27T05:52:50.898Z,76.80
2019-04-27T05:55:19.398Z,77.00
2019-04-27T05:57:49.007Z,77.10
2019-04-27T06:00:20.526Z,77.30
2019-04-27T06:02:49.130Z,77.50
2019-04-27T06:05:19.007Z,77.50
2019-04-27T06:07:48.768Z,77.60
2019-04-27T06:10:17.531Z,77.80
2019-04-27T06:12:46.539Z,77.80
2019-04-27T06:15:16.158Z,77.90
2019-04-27T06:17:44.624Z,77.90
2019-04-27T06:20:13.558Z,78.10
2019-04-27T06:22:42.097Z,78.10
2019-04-27T06:25:11.851Z,78.20
2019-04-27T06:27:40.795Z,78.40
2019-04-27T06:30:10.108Z,78.50
2019-04-27T06:32:39.525Z,78.60
2019-04-27T06:35:12.240Z,78.80
2019-04-27T06:37:39.502Z,79.00
2019-04-27T06:40:09.662Z,79.10
2019-04-27T06:42:39.843Z,79.20
2019-04-27T06:45:09.976Z,79.30
2019-04-27T06:47:39.688Z,79.30
2019-04-27T06:50:11.080Z,79.40
2019-04-27T06:52:39.622Z,79.50
2019-04-27T06:55:09.371Z,82.80
2019-04-27T06:57:39.082Z,81.30
2019-04-27T07:00:11.234Z,80.90
2019-04-27T07:02:39.739Z,80.70
2019-04-27T07:05:09.237Z,80.60
2019-04-27T07:07:39.507Z,80.50
2019-04-27T07:10:08.698Z,80.60
2019-04-27T07:12:40.552Z,80.60
2019-04-27T07:15:08.944Z,81.20
2019-04-27T07:17:38.865Z,80.30
2019-04-27T07:20:09.133Z,82.00
2019-04-27T07:22:39.702Z,81.20
2019-04-27T07:25:09.073Z,80.80
2019-04-27T07:27:39.485Z,80.60
2019-04-27T07:30:11.879Z,80.50
2019-04-27T07:32:39.354Z,80.30
2019-04-27T07:35:09.631Z,81.70
2019-04-27T07:37:39.293Z,80.80
2019-04-27T07:40:09.107Z,80.70
2019-04-27T07:42:39.699Z,80.20
2019-04-27T07:45:11.298Z,80.10
2019-04-27T07:47:41.977Z,79.80
2019-04-27T07:50:10.597Z,81.40
2019-04-27T07:52:40.542Z,80.50
2019-04-27T07:55:10.259Z,80.30
2019-04-27T07:57:39.968Z,79.90
2019-04-27T08:00:09.565Z,79.80
2019-04-27T08:02:38.990Z,79.80
2019-04-27T08:05:09.334Z,79.70
2019-04-27T08:07:39.263Z,79.20
2019-04-27T08:10:09.784Z,79.40
2019-04-27T08:12:38.678Z,78.90
2019-04-27T08:15:08.896Z,78.40
2019-04-27T08:17:42.402Z,78.40
2019-04-27T08:20:09.831Z,78.00
2019-04-27T08:22:38.917Z,77.40
2019-04-27T08:25:09.450Z,77.00
2019-04-27T08:27:49.367Z,77.10
2019-04-27T08:30:25.482Z,76.60
2019-04-27T08:32:55.605Z,75.70
2019-04-27T08:35:24.153Z,75.30
2019-04-27T08:37:52.608Z,75.50
2019-04-27T08:40:22.028Z,75.20
2019-04-27T08:42:51.276Z,75.20
2019-04-27T08:45:20.239Z,74.70
2019-04-27T08:47:49.738Z,74.50
2019-04-27T08:50:20.427Z,74.50
2019-04-27T08:52:50.163Z,74.60
2019-04-27T08:55:19.715Z,74.20
2019-04-27T08:57:49.192Z,73.70
2019-04-27T09:00:19.399Z,73.30
2019-04-27T09:02:50.300Z,73.00
2019-04-27T09:05:21.182Z,72.60
2019-04-27T09:08:01.426Z,72.70
2019-04-27T09:10:34.125Z,71.60
2019-04-27T09:13:04.304Z,70.30
2019-04-27T09:15:35.958Z,69.30
2019-04-27T09:18:05.017Z,68.50
2019-04-27T09:20:38.948Z,68.30
2019-04-27T09:23:06.298Z,67.60
2019-04-27T09:25:34.807Z,67.90
2019-04-27T09:28:03.307Z,67.30
2019-04-27T09:30:31.780Z,66.30
2019-04-27T09:33:00.253Z,65.70
2019-04-27T09:35:29.406Z,65.10
2019-04-27T09:37:57.903Z,59.70
2019-04-27T09:40:26.860Z,62.40
2019-04-27T09:42:57.206Z,62.90
2019-04-27T09:45:27.083Z,63.60
2019-04-27T09:47:56.381Z,63.70
2019-04-27T09:50:27.998Z,64.30
2019-04-27T09:52:55.830Z,63.40
2019-04-27T09:55:26.354Z,63.50
2019-04-27T09:57:56.720Z,63.70
2019-04-27T10:00:27.511Z,63.40
2019-04-27T10:02:56.387Z,63.50
2019-04-27T10:05:26.365Z,63.40
2019-04-27T10:07:56.905Z,63.30
2019-04-27T10:10:26.751Z,63.40
2019-04-27T10:12:56.839Z,63.50
2019-04-27T10:15:26.671Z,63.50
2019-04-27T10:17:57.344Z,63.40
2019-04-27T10:20:25.694Z,63.20
2019-04-27T10:22:56.262Z,62.80
2019-04-27T10:25:26.118Z,62.60
2019-04-27T10:28:00.382Z,62.50
2019-04-27T10:30:30.201Z,61.50
2019-04-27T10:32:59.063Z,61.50
2019-04-27T10:35:27.639Z,61.00
2019-04-27T10:37:56.166Z,60.60
2019-04-27T10:40:26.250Z,60.30
2019-04-27T10:42:56.051Z,60.40
2019-04-27T10:45:24.853Z,59.90
2019-04-27T10:47:56.167Z,59.50
2019-04-27T10:50:26.343Z,59.40
2019-04-27T10:52:59.231Z,58.90
2019-04-27T10:55:26.740Z,59.20
2019-04-27T10:57:56.853Z,59.40
2019-04-27T11:00:27.878Z,59.10
2019-04-27T11:02:56.551Z,58.50
2019-04-27T11:05:45.970Z,58.20
2019-04-27T11:08:16.588Z,57.70
2019-04-27T11:10:46.187Z,57.60
2019-04-27T11:13:16.525Z,55.50
2019-04-27T11:15:46.129Z,53.60
2019-04-27T11:18:16.682Z,55.60
2019-04-27T11:20:46.843Z,55.30
2019-04-27T11:23:16.413Z,55.70
2019-04-27T11:25:46.828Z,55.60
2019-04-27T11:28:15.706Z,55.40
2019-04-27T11:30:44.782Z,54.90
2019-04-27T11:33:13.287Z,54.60
2019-04-27T11:35:43.653Z,54.80
2019-04-27T11:38:12.113Z,54.20
2019-04-27T11:40:40.615Z,53.90
2019-04-27T11:43:09.206Z,53.80
2019-04-27T11:45:37.687Z,53.40
2019-04-27T11:48:06.153Z,53.50
2019-04-27T11:50:35.802Z,54.20
2019-04-27T11:53:06.305Z,54.10
2019-04-27T11:55:35.012Z,54.10
2019-04-27T11:58:03.948Z,51.70
2019-04-27T12:00:33.033Z,52.70
2019-04-27T12:03:02.015Z,52.80
2019-04-27T12:05:30.509Z,52.90
2019-04-27T12:07:59.086Z,53.10
2019-04-27T12:10:27.636Z,52.90
2019-04-27T12:12:56.862Z,52.90
2019-04-27T12:15:26.225Z,52.70
2019-04-27T12:17:56.162Z,53.20
2019-04-27T12:20:25.866Z,54.50
2019-04-27T12:22:54.937Z,54.80
2019-04-27T12:25:23.504Z,55.00
2019-04-27T12:27:59.476Z,55.00
2019-04-27T12:30:44.957Z,54.80
2019-04-27T12:33:13.591Z,55.30
2019-04-27T12:35:42.050Z,55.50
2019-04-27T12:38:11.814Z,55.70
2019-04-27T12:40:40.280Z,56.30
2019-04-27T12:43:08.750Z,56.50
2019-04-27T12:45:40.338Z,55.90
2019-04-27T12:48:08.229Z,55.20
2019-04-27T12:50:36.724Z,54.70
2019-04-27T12:53:07.069Z,55.10
2019-04-27T12:55:39.696Z,54.90
2019-04-27T12:58:16.413Z,55.10
2019-04-27T13:00:58.618Z,54.70
2019-04-27T13:03:27.467Z,56.00
2019-04-27T13:05:56.010Z,56.90
2019-04-27T13:08:26.023Z,57.00
2019-04-27T13:10:55.371Z,57.70
2019-04-27T13:13:26.658Z,58.20
2019-04-27T13:15:56.345Z,58.50
2019-04-27T13:18:26.415Z,58.80
2019-04-27T13:20:54.912Z,58.00
2019-04-27T13:23:23.488Z,58.50
2019-04-27T13:25:52.413Z,57.80
2019-04-27T13:28:21.069Z,58.50
2019-04-27T13:30:51.365Z,58.30
2019-04-27T13:33:19.904Z,57.90
2019-04-27T13:35:48.406Z,58.00
2019-04-27T13:38:18.194Z,58.00
2019-04-27T13:40:48.778Z,57.70
2019-04-27T13:43:25.916Z,58.20
2019-04-27T13:45:57.861Z,59.00
2019-04-27T13:48:28.124Z,58.80
2019-04-27T13:50:59.986Z,58.20
2019-04-27T13:53:32.747Z,56.90
2019-04-27T13:56:03.379Z,56.00
2019-04-27T13:58:32.216Z,55.40
2019-04-27T14:01:01.041Z,55.00
2019-04-27T14:03:29.512Z,54.40
2019-04-27T14:05:59.032Z,54.40
2019-04-27T14:08:29.104Z,54.10
2019-04-27T14:11:01.211Z,54.10
2019-04-27T14:13:28.752Z,54.50
2019-04-27T14:15:57.758Z,54.70
2019-04-27T14:18:26.226Z,54.30
2019-04-27T14:20:56.794Z,54.30
2019-04-27T14:23:29.693Z,53.70
2019-04-27T14:25:58.594Z,54.10
2019-04-27T14:28:29.021Z,53.50
2019-04-27T14:31:01.056Z,52.90
2019-04-27T14:33:29.614Z,53.10
2019-04-27T14:35:59.404Z,53.40
2019-04-27T14:38:28.430Z,53.00
2019-04-27T14:40:56.921Z,53.30
2019-04-27T14:43:25.392Z,54.00
2019-04-27T14:45:53.867Z,53.50
2019-04-27T14:48:22.426Z,53.70
2019-04-27T14:50:51.037Z,53.60
2019-04-27T14:53:19.526Z,53.60
2019-04-27T14:55:49.023Z,53.50
2019-04-27T14:58:19.200Z,53.50
2019-04-27T15:00:49.695Z,53.30
2019-04-27T15:03:18.483Z,53.20
2019-04-27T15:05:49.643Z,53.20
2019-04-27T15:08:17.225Z,53.30
2019-04-27T15:10:46.480Z,52.70
2019-04-27T15:13:15.250Z,52.60
2019-04-27T15:15:44.132Z,52.50
2019-04-27T15:18:13.094Z,52.20
2019-04-27T15:20:44.579Z,51.10
2019-04-27T15:23:15.788Z,51.40
2019-04-27T15:25:46.912Z,51.40
2019-04-27T15:28:22.760Z,51.70
2019-04-27T15:30:53.512Z,52.10
2019-04-27T15:33:40.259Z,50.50
2019-04-27T15:36:14.640Z,51.40
2019-04-27T15:38:51.213Z,51.60
2019-04-27T15:41:35.720Z,51.90
2019-04-27T15:44:07.557Z,51.90
2019-04-27T15:46:38.982Z,51.70
2019-04-27T15:49:11.350Z,51.90
2019-04-27T15:51:38.215Z,52.20
2019-04-27T15:54:07.159Z,52.20
2019-04-27T15:56:36.986Z,52.30
2019-04-27T15:59:05.973Z,52.40
2019-04-27T16:01:35.695Z,52.60
2019-04-27T16:04:07.647Z,52.90
2019-04-27T16:06:35.549Z,52.80
2019-04-27T16:09:10.045Z,53.10
2019-04-27T16:11:39.008Z,53.40
2019-04-27T16:14:07.862Z,53.40
2019-04-27T16:16:38.209Z,53.40
2019-04-27T16:19:09.016Z,53.40
2019-04-27T16:21:41.522Z,53.70
2019-04-27T16:24:08.489Z,53.80
2019-04-27T16:26:38.729Z,54.00
2019-04-27T16:29:08.260Z,54.10
2019-04-27T16:31:38.455Z,54.30
2019-04-27T16:34:08.326Z,54.40
2019-04-27T16:36:37.841Z,54.90
2019-04-27T16:39:10.075Z,54.70
2019-04-27T16:41:41.800Z,54.90
2019-04-27T16:44:10.887Z,54.50
2019-04-27T16:46:42.780Z,54.10
2019-04-27T16:49:13.673Z,54.00
2019-04-27T16:51:40.479Z,54.10
2019-04-27T16:54:17.047Z,54.40
2019-04-27T16:56:45.626Z,54.20
2019-04-27T16:59:38.790Z,53.90
2019-04-27T17:01:46.227Z,53.80
2019-04-27T17:04:15.215Z,54.10
2019-04-27T17:06:45.864Z,53.80
2019-04-27T17:09:14.064Z,53.90
2019-04-27T17:11:43.612Z,53.80
2019-04-27T17:14:20.578Z,54.30
2019-04-27T17:16:49.626Z,54.50
2019-04-27T17:19:22.338Z,55.00
2019-04-27T17:21:50.886Z,55.10
2019-04-27T17:24:41.855Z,55.20
2019-04-27T17:27:05.985Z,55.30
2019-04-27T17:29:38.984Z,55.30
2019-04-27T17:32:08.949Z,55.30
2019-04-27T17:34:39.604Z,55.60
2019-04-27T17:37:08.306Z,55.70
2019-04-27T17:39:38.763Z,55.80
2019-04-27T17:42:08.451Z,56.00
2019-04-27T17:44:39.142Z,56.20
2019-04-27T17:47:08.861Z,56.40
2019-04-27T17:49:38.189Z,56.70
2019-04-27T17:52:08.805Z,56.70
2019-04-27T17:54:42.471Z,56.80
2019-04-27T17:57:10.383Z,57.00
2019-04-27T17:59:38.574Z,57.10
2019-04-27T18:02:08.909Z,57.00
2019-04-27T18:04:40.791Z,56.50
2019-04-27T18:07:08.938Z,56.40
2019-04-27T18:09:43.312Z,56.30
2019-04-27T18:12:14.433Z,56.50
2019-04-27T18:14:41.222Z,55.80
2019-04-27T18:17:12.129Z,55.50
2019-04-27T18:19:44.170Z,55.40
2019-04-27T18:22:11.898Z,55.30
2019-04-27T18:24:42.390Z,55.50
2019-04-27T18:27:15.305Z,55.70
2019-04-27T18:29:43.865Z,55.70
2019-04-27T18:32:12.676Z,55.70
2019-04-27T18:34:41.233Z,55.70
2019-04-27T18:37:09.717Z,55.70
2019-04-27T18:39:38.792Z,55.80
2019-04-27T18:42:08.901Z,56.10
2019-04-27T18:44:38.238Z,56.40
2019-04-27T18:47:08.402Z,56.80
2019-04-27T18:49:53.630Z,57.40
2019-04-27T18:52:45.098Z,57.60
2019-04-27T18:55:11.358Z,57.70
2019-04-27T18:57:41.224Z,57.50
2019-04-27T19:00:12.140Z,57.60
2019-04-27T19:02:40.978Z,57.50
2019-04-27T19:05:10.674Z,57.70
2019-04-27T19:07:39.141Z,58.30
2019-04-27T19:10:08.922Z,58.50
2019-04-27T19:12:39.408Z,59.10
2019-04-27T19:15:09.026Z,59.50
2019-04-27T19:17:38.641Z,60.30
2019-04-27T19:20:10.250Z,60.40
2019-04-27T19:22:38.708Z,61.30
2019-04-27T19:25:09.786Z,61.20
2019-04-27T19:27:52.043Z,61.80
2019-04-27T19:30:22.146Z,62.10
2019-04-27T19:32:51.063Z,62.40
2019-04-27T19:35:19.984Z,63.00
2019-04-27T19:37:48.749Z,63.20
2019-04-27T19:40:18.713Z,63.40
2019-04-27T19:42:48.621Z,63.70
2019-04-27T19:45:20.821Z,63.80
2019-04-27T19:47:48.583Z,63.70
2019-04-27T19:50:19.189Z,63.20
2019-04-27T19:52:47.631Z,63.10
2019-04-27T19:55:16.226Z,63.00
2019-04-27T19:57:44.858Z,63.00
2019-04-27T20:00:15.954Z,62.70
2019-04-27T20:02:47.865Z,62.50
2019-04-27T20:05:18.660Z,62.30
2019-04-27T20:07:48.220Z,62.10
2019-04-27T20:10:17.018Z,62.10
2019-04-27T20:12:45.502Z,61.90
2019-04-27T20:15:14.531Z,62.10
2019-04-27T20:17:43.007Z,62.40
2019-04-27T20:20:11.838Z,62.30
2019-04-27T20:22:40.322Z,62.50
2019-04-27T20:25:11.213Z,62.40
2019-04-27T20:27:48.421Z,62.30
2019-04-27T20:30:12.799Z,62.00
2019-04-27T20:32:41.331Z,61.90
2019-04-27T20:35:11.662Z,62.00
2019-04-27T20:37:41.551Z,62.30
2019-04-27T20:40:11.623Z,63.30
2019-04-27T20:42:41.588Z,62.40
2019-04-27T20:45:11.953Z,62.50
2019-04-27T20:47:40.853Z,62.40
2019-04-27T20:50:10.178Z,62.50
2019-04-27T20:52:43.198Z,62.60
2019-04-27T20:55:13.100Z,62.70
2019-04-27T20:57:41.752Z,62.90
2019-04-27T21:00:12.297Z,63.10
2019-04-27T21:02:42.494Z,63.00
2019-04-27T21:05:24.772Z,63.00
2019-04-27T21:08:11.607Z,63.10
2019-04-27T21:10:41.290Z,63.20
2019-04-27T21:13:11.231Z,63.40
2019-04-27T21:15:41.829Z,63.60
2019-04-27T21:18:11.475Z,63.80
2019-04-27T21:20:41.226Z,64.00
2019-04-27T21:23:11.917Z,64.10
2019-04-27T21:25:42.076Z,64.10
2019-04-27T21:28:17.950Z,63.90
2019-04-27T21:30:40.845Z,64.10
2019-04-27T21:33:11.245Z,64.00
2019-04-27T21:35:39.694Z,64.10
2019-04-27T21:38:08.263Z,64.10
2019-04-27T21:40:36.800Z,64.10
2019-04-27T21:43:05.302Z,64.30
2019-04-27T21:45:33.865Z,64.60
2019-04-27T21:48:02.506Z,64.70
2019-04-27T21:50:31.405Z,65.00
2019-04-27T21:53:02.555Z,65.20
2019-04-27T21:55:32.971Z,65.50
2019-04-27T21:58:01.568Z,65.60
2019-04-27T22:00:42.508Z,65.70
2019-04-27T22:03:11.869Z,66.60
2019-04-27T22:05:43.554Z,66.20
2019-04-27T22:08:12.015Z,66.20
2019-04-27T22:10:41.251Z,66.30
2019-04-27T22:13:09.786Z,66.40
2019-04-27T22:15:38.649Z,66.50
2019-04-27T22:18:07.536Z,66.50
2019-04-27T22:20:36.069Z,66.40
2019-04-27T22:23:12.467Z,66.60
2019-04-27T22:25:42.171Z,66.70
2019-04-27T22:28:11.745Z,66.80
2019-04-27T22:30:41.194Z,66.80
2019-04-27T22:33:11.269Z,66.80
2019-04-27T22:35:41.464Z,67.10
2019-04-27T22:38:11.851Z,66.90
2019-04-27T22:41:01.982Z,67.10
2019-04-27T22:43:41.324Z,67.20
2019-04-27T22:46:11.766Z,67.20
2019-04-27T22:48:41.573Z,67.30
2019-04-27T22:51:11.699Z,67.30
2019-04-27T22:53:41.087Z,67.40
2019-04-27T22:56:22.316Z,67.50
2019-04-27T22:59:00.667Z,67.60
2019-04-27T23:01:28.082Z,67.40
2019-04-27T23:03:58.262Z,67.40
2019-04-27T23:06:26.728Z,67.60
2019-04-27T23:08:55.999Z,67.50
2019-04-27T23:11:24.551Z,67.50
2019-04-27T23:13:53.102Z,67.60
2019-04-27T23:16:23.278Z,67.50
2019-04-27T23:18:51.769Z,67.50
2019-04-27T23:21:20.898Z,67.50
2019-04-27T23:23:51.581Z,67.50
2019-04-27T23:26:21.146Z,67.50
2019-04-27T23:28:51.388Z,67.60
2019-04-27T23:31:24.688Z,67.50
2019-04-27T23:33:53.251Z,67.60
2019-04-27T23:36:22.292Z,67.50
2019-04-27T23:38:51.119Z,67.60
2019-04-27T23:41:19.663Z,67.10
2019-04-27T23:43:48.151Z,67.70
2019-04-27T23:46:17.336Z,67.80
2019-04-27T23:48:46.342Z,67.80
2019-04-27T23:51:16.472Z,67.80
2019-04-27T23:53:44.953Z,68.80
2019-04-27T23:56:13.448Z,67.80
2019-04-27T23:58:41.927Z,68.00
